sensor_id;sensor_type;location;lat;lon;timestamp;P1;durP1;ratioP1;P2;durP2;ratioP2
51692;SDS011;37777;53.066;21.638;2023-04-24T00:05:22;9.68;;;6.13;;
51692;SDS011;37777;53.066;21.638;2023-04-24T00:12:24;11.43;;;5.97;;
51692;SDS011;37777;53.066;21.638;2023-04-24T00:19:26;11.60;;;5.72;;
51692;SDS011;37777;53.066;21.638;2023-04-24T00:26:28;9.10;;;5.80;;
51692;SDS011;37777;53.066;21.638;2023-04-24T00:33:30;10.93;;;6.78;;
51692;SDS011;37777;53.066;21.638;2023-04-24T00:40:31;15.10;;;7.07;;
51692;SDS011;37777;53.066;21.638;2023-04-24T00:47:33;15.18;;;6.22;;
51692;SDS011;37777;53.066;21.638;2023-04-24T00:54:35;9.65;;;5.65;;
51692;SDS011;37777;53.066;21.638;2023-04-24T01:01:37;10.90;;;6.90;;
51692;SDS011;37777;53.066;21.638;2023-04-24T01:08:43;7.82;;;5.38;;
51692;SDS011;37777;53.066;21.638;2023-04-24T01:15:46;9.85;;;6.43;;
51692;SDS011;37777;53.066;21.638;2023-04-24T01:22:48;9.88;;;5.72;;
51692;SDS011;37777;53.066;21.638;2023-04-24T01:29:50;9.27;;;5.82;;
51692;SDS011;37777;53.066;21.638;2023-04-24T01:36:53;10.48;;;6.15;;
51692;SDS011;37777;53.066;21.638;2023-04-24T01:43:55;8.30;;;5.80;;
51692;SDS011;37777;53.066;21.638;2023-04-24T01:50:58;9.20;;;5.93;;
51692;SDS011;37777;53.066;21.638;2023-04-24T01:58:00;9.82;;;6.20;;
51692;SDS011;37777;53.066;21.638;2023-04-24T02:05:05;11.23;;;6.35;;
51692;SDS011;37777;53.066;21.638;2023-04-24T02:12:07;9.98;;;5.72;;
51692;SDS011;37777;53.066;21.638;2023-04-24T02:19:09;7.00;;;5.15;;
51692;SDS011;37777;53.066;21.638;2023-04-24T02:26:11;8.13;;;5.88;;
51692;SDS011;37777;53.066;21.638;2023-04-24T02:33:13;8.32;;;6.28;;
51692;SDS011;37777;53.066;21.638;2023-04-24T02:40:14;8.73;;;5.80;;
51692;SDS011;37777;53.066;21.638;2023-04-24T02:47:16;11.02;;;6.13;;
51692;SDS011;37777;53.066;21.638;2023-04-24T02:54:18;10.45;;;6.03;;
51692;SDS011;37777;53.066;21.638;2023-04-24T03:01:20;7.70;;;5.97;;
51692;SDS011;37777;53.066;21.638;2023-04-24T03:08:22;13.05;;;5.80;;
51692;SDS011;37777;53.066;21.638;2023-04-24T03:15:24;11.68;;;6.10;;
51692;SDS011;37777;53.066;21.638;2023-04-24T03:22:25;8.30;;;6.03;;
51692;SDS011;37777;53.066;21.638;2023-04-24T03:29:27;8.93;;;5.90;;
51692;SDS011;37777;53.066;21.638;2023-04-24T03:36:30;8.18;;;5.55;;
51692;SDS011;37777;53.066;21.638;2023-04-24T03:43:33;7.93;;;6.05;;
51692;SDS011;37777;53.066;21.638;2023-04-24T03:50:36;10.15;;;6.40;;
51692;SDS011;37777;53.066;21.638;2023-04-24T03:57:37;10.55;;;6.60;;
51692;SDS011;37777;53.066;21.638;2023-04-24T04:04:39;13.18;;;7.40;;
51692;SDS011;37777;53.066;21.638;2023-04-24T04:11:41;10.55;;;6.43;;
51692;SDS011;37777;53.066;21.638;2023-04-24T04:18:43;11.45;;;6.60;;
51692;SDS011;37777;53.066;21.638;2023-04-24T04:25:45;9.40;;;6.57;;
51692;SDS011;37777;53.066;21.638;2023-04-24T04:32:48;14.35;;;6.88;;
51692;SDS011;37777;53.066;21.638;2023-04-24T04:39:50;11.48;;;6.60;;
51692;SDS011;37777;53.066;21.638;2023-04-24T04:46:52;10.27;;;6.70;;
51692;SDS011;37777;53.066;21.638;2023-04-24T04:53:54;13.80;;;7.53;;
51692;SDS011;37777;53.066;21.638;2023-04-24T05:00:56;13.75;;;7.05;;
51692;SDS011;37777;53.066;21.638;2023-04-24T05:07:58;11.05;;;7.00;;
51692;SDS011;37777;53.066;21.638;2023-04-24T05:15:00;8.57;;;6.72;;
51692;SDS011;37777;53.066;21.638;2023-04-24T05:22:02;9.60;;;6.95;;
51692;SDS011;37777;53.066;21.638;2023-04-24T05:29:05;11.93;;;6.85;;
51692;SDS011;37777;53.066;21.638;2023-04-24T05:36:07;11.48;;;6.70;;
51692;SDS011;37777;53.066;21.638;2023-04-24T05:43:09;9.30;;;6.00;;
51692;SDS011;37777;53.066;21.638;2023-04-24T05:50:11;11.10;;;6.45;;
51692;SDS011;37777;53.066;21.638;2023-04-24T05:57:13;11.32;;;6.72;;
51692;SDS011;37777;53.066;21.638;2023-04-24T06:04:15;14.35;;;7.00;;
51692;SDS011;37777;53.066;21.638;2023-04-24T06:11:17;12.27;;;6.55;;
51692;SDS011;37777;53.066;21.638;2023-04-24T06:18:19;9.70;;;6.75;;
51692;SDS011;37777;53.066;21.638;2023-04-24T06:25:21;14.52;;;6.97;;
51692;SDS011;37777;53.066;21.638;2023-04-24T06:32:23;11.68;;;7.40;;
51692;SDS011;37777;53.066;21.638;2023-04-24T06:39:25;10.32;;;6.63;;
51692;SDS011;37777;53.066;21.638;2023-04-24T06:46:27;14.85;;;7.18;;
51692;SDS011;37777;53.066;21.638;2023-04-24T06:53:29;10.88;;;6.88;;
51692;SDS011;37777;53.066;21.638;2023-04-24T07:00:31;11.63;;;6.35;;
51692;SDS011;37777;53.066;21.638;2023-04-24T07:07:33;17.02;;;7.03;;
51692;SDS011;37777;53.066;21.638;2023-04-24T07:14:36;9.23;;;6.85;;
51692;SDS011;37777;53.066;21.638;2023-04-24T07:21:37;12.50;;;7.00;;
51692;SDS011;37777;53.066;21.638;2023-04-24T07:28:39;9.70;;;6.47;;
51692;SDS011;37777;53.066;21.638;2023-04-24T07:35:42;9.27;;;6.53;;
51692;SDS011;37777;53.066;21.638;2023-04-24T07:42:43;11.02;;;6.68;;
51692;SDS011;37777;53.066;21.638;2023-04-24T07:49:45;13.43;;;6.57;;
51692;SDS011;37777;53.066;21.638;2023-04-24T07:56:48;12.02;;;6.75;;
51692;SDS011;37777;53.066;21.638;2023-04-24T08:03:50;9.93;;;6.30;;
51692;SDS011;37777;53.066;21.638;2023-04-24T08:10:53;9.60;;;5.18;;
51692;SDS011;37777;53.066;21.638;2023-04-24T08:17:56;10.00;;;5.72;;
51692;SDS011;37777;53.066;21.638;2023-04-24T08:25:02;9.23;;;5.93;;
51692;SDS011;37777;53.066;21.638;2023-04-24T08:32:04;9.35;;;6.05;;
51692;SDS011;37777;53.066;21.638;2023-04-24T08:39:06;13.13;;;5.38;;
51692;SDS011;37777;53.066;21.638;2023-04-24T08:46:08;11.85;;;5.55;;
51692;SDS011;37777;53.066;21.638;2023-04-24T08:53:12;8.23;;;5.53;;
51692;SDS011;37777;53.066;21.638;2023-04-24T09:00:14;12.20;;;5.40;;
51692;SDS011;37777;53.066;21.638;2023-04-24T09:07:16;9.70;;;5.53;;
51692;SDS011;37777;53.066;21.638;2023-04-24T09:14:19;6.68;;;5.30;;
51692;SDS011;37777;53.066;21.638;2023-04-24T09:21:22;8.07;;;5.38;;
51692;SDS011;37777;53.066;21.638;2023-04-24T09:28:31;12.32;;;5.50;;
51692;SDS011;37777;53.066;21.638;2023-04-24T09:35:33;7.35;;;5.20;;
51692;SDS011;37777;53.066;21.638;2023-04-24T09:42:35;10.63;;;4.88;;
51692;SDS011;37777;53.066;21.638;2023-04-24T09:49:37;6.57;;;4.97;;
51692;SDS011;37777;53.066;21.638;2023-04-24T09:56:44;8.05;;;5.03;;
51692;SDS011;37777;53.066;21.638;2023-04-24T10:03:46;11.27;;;4.95;;
51692;SDS011;37777;53.066;21.638;2023-04-24T10:10:48;6.85;;;4.63;;
51692;SDS011;37777;53.066;21.638;2023-04-24T10:17:50;10.63;;;5.82;;
51692;SDS011;37777;53.066;21.638;2023-04-24T10:24:55;7.70;;;4.38;;
51692;SDS011;37777;53.066;21.638;2023-04-24T10:31:59;9.27;;;5.00;;
51692;SDS011;37777;53.066;21.638;2023-04-24T10:39:02;6.68;;;4.70;;
51692;SDS011;37777;53.066;21.638;2023-04-24T10:46:04;7.78;;;5.07;;
51692;SDS011;37777;53.066;21.638;2023-04-24T10:53:11;6.93;;;4.43;;
51692;SDS011;37777;53.066;21.638;2023-04-24T11:00:14;8.13;;;4.57;;
51692;SDS011;37777;53.066;21.638;2023-04-24T11:07:17;7.70;;;3.80;;
51692;SDS011;37777;53.066;21.638;2023-04-24T11:14:19;8.48;;;4.80;;
51692;SDS011;37777;53.066;21.638;2023-04-24T11:21:23;6.60;;;4.28;;
51692;SDS011;37777;53.066;21.638;2023-04-24T11:28:25;6.72;;;4.38;;
51692;SDS011;37777;53.066;21.638;2023-04-24T11:35:27;9.90;;;4.72;;
51692;SDS011;37777;53.066;21.638;2023-04-24T11:42:35;6.65;;;4.30;;
51692;SDS011;37777;53.066;21.638;2023-04-24T11:49:37;4.93;;;4.25;;
51692;SDS011;37777;53.066;21.638;2023-04-24T11:56:38;6.70;;;4.32;;
51692;SDS011;37777;53.066;21.638;2023-04-24T12:03:40;8.45;;;4.40;;
51692;SDS011;37777;53.066;21.638;2023-04-24T12:10:46;8.65;;;4.10;;
51692;SDS011;37777;53.066;21.638;2023-04-24T12:17:53;5.25;;;4.22;;
51692;SDS011;37777;53.066;21.638;2023-04-24T12:24:55;5.53;;;3.95;;
51692;SDS011;37777;53.066;21.638;2023-04-24T12:31:58;8.45;;;4.20;;
51692;SDS011;37777;53.066;21.638;2023-04-24T12:38:59;7.25;;;3.88;;
51692;SDS011;37777;53.066;21.638;2023-04-24T12:46:01;5.00;;;3.60;;
51692;SDS011;37777;53.066;21.638;2023-04-24T12:53:03;7.88;;;4.13;;
51692;SDS011;37777;53.066;21.638;2023-04-24T13:00:06;10.02;;;4.20;;
51692;SDS011;37777;53.066;21.638;2023-04-24T13:07:08;4.72;;;4.00;;
51692;SDS011;37777;53.066;21.638;2023-04-24T13:14:10;5.47;;;4.05;;
51692;SDS011;37777;53.066;21.638;2023-04-24T13:21:12;10.95;;;4.30;;
51692;SDS011;37777;53.066;21.638;2023-04-24T13:28:13;8.10;;;4.00;;
51692;SDS011;37777;53.066;21.638;2023-04-24T13:35:15;6.07;;;3.72;;
51692;SDS011;37777;53.066;21.638;2023-04-24T13:42:17;5.45;;;3.65;;
51692;SDS011;37777;53.066;21.638;2023-04-24T13:49:20;5.28;;;4.28;;
51692;SDS011;37777;53.066;21.638;2023-04-24T13:56:22;7.50;;;4.40;;
51692;SDS011;37777;53.066;21.638;2023-04-24T14:03:24;9.02;;;4.63;;
51692;SDS011;37777;53.066;21.638;2023-04-24T14:10:27;9.80;;;4.85;;
51692;SDS011;37777;53.066;21.638;2023-04-24T14:17:29;5.25;;;4.20;;
51692;SDS011;37777;53.066;21.638;2023-04-24T14:24:31;8.27;;;4.85;;
51692;SDS011;37777;53.066;21.638;2023-04-24T14:31:33;8.30;;;5.15;;
51692;SDS011;37777;53.066;21.638;2023-04-24T14:38:35;7.38;;;4.63;;
51692;SDS011;37777;53.066;21.638;2023-04-24T14:45:37;5.43;;;4.07;;
51692;SDS011;37777;53.066;21.638;2023-04-24T14:52:39;5.05;;;3.75;;
51692;SDS011;37777;53.066;21.638;2023-04-24T14:59:43;5.97;;;4.50;;
51692;SDS011;37777;53.066;21.638;2023-04-24T15:06:44;8.38;;;5.63;;
51692;SDS011;37777;53.066;21.638;2023-04-24T15:13:46;6.13;;;4.40;;
51692;SDS011;37777;53.066;21.638;2023-04-24T15:20:48;6.13;;;3.90;;
51692;SDS011;37777;53.066;21.638;2023-04-24T15:27:50;4.57;;;3.17;;
51692;SDS011;37777;53.066;21.638;2023-04-24T15:34:52;9.75;;;4.43;;
51692;SDS011;37777;53.066;21.638;2023-04-24T15:42:08;5.32;;;3.72;;
51692;SDS011;37777;53.066;21.638;2023-04-24T15:49:10;7.03;;;4.28;;
51692;SDS011;37777;53.066;21.638;2023-04-24T15:56:12;14.60;;;5.03;;
51692;SDS011;37777;53.066;21.638;2023-04-24T16:03:14;4.60;;;3.80;;
51692;SDS011;37777;53.066;21.638;2023-04-24T16:10:16;5.47;;;3.85;;
51692;SDS011;37777;53.066;21.638;2023-04-24T16:17:18;7.38;;;4.07;;
51692;SDS011;37777;53.066;21.638;2023-04-24T16:24:23;9.10;;;5.85;;
51692;SDS011;37777;53.066;21.638;2023-04-24T16:31:25;16.90;;;8.70;;
51692;SDS011;37777;53.066;21.638;2023-04-24T16:38:29;7.90;;;5.22;;
51692;SDS011;37777;53.066;21.638;2023-04-24T16:45:34;5.60;;;4.93;;
51692;SDS011;37777;53.066;21.638;2023-04-24T16:52:37;13.68;;;7.05;;
51692;SDS011;37777;53.066;21.638;2023-04-24T16:59:39;10.15;;;6.00;;
51692;SDS011;37777;53.066;21.638;2023-04-24T17:06:43;10.35;;;5.90;;
51692;SDS011;37777;53.066;21.638;2023-04-24T17:13:46;14.90;;;6.47;;
51692;SDS011;37777;53.066;21.638;2023-04-24T17:20:48;11.30;;;7.25;;
51692;SDS011;37777;53.066;21.638;2023-04-24T17:27:51;14.30;;;6.97;;
51692;SDS011;37777;53.066;21.638;2023-04-24T17:34:54;11.50;;;7.82;;
51692;SDS011;37777;53.066;21.638;2023-04-24T17:41:57;12.48;;;7.13;;
51692;SDS011;37777;53.066;21.638;2023-04-24T17:48:59;12.63;;;8.55;;
51692;SDS011;37777;53.066;21.638;2023-04-24T17:56:01;18.15;;;9.82;;
51692;SDS011;37777;53.066;21.638;2023-04-24T18:03:05;16.10;;;8.85;;
51692;SDS011;37777;53.066;21.638;2023-04-24T18:10:09;17.88;;;9.82;;
51692;SDS011;37777;53.066;21.638;2023-04-24T18:17:11;18.88;;;9.32;;
51692;SDS011;37777;53.066;21.638;2023-04-24T18:24:13;8.50;;;6.50;;
51692;SDS011;37777;53.066;21.638;2023-04-24T18:31:16;7.72;;;6.20;;
51692;SDS011;37777;53.066;21.638;2023-04-24T18:38:18;10.45;;;7.25;;
51692;SDS011;37777;53.066;21.638;2023-04-24T18:45:21;30.23;;;15.55;;
51692;SDS011;37777;53.066;21.638;2023-04-24T18:52:23;22.75;;;12.75;;
51692;SDS011;37777;53.066;21.638;2023-04-24T18:59:27;11.15;;;7.82;;
51692;SDS011;37777;53.066;21.638;2023-04-24T19:06:30;18.13;;;6.45;;
51692;SDS011;37777;53.066;21.638;2023-04-24T19:13:34;8.70;;;6.20;;
51692;SDS011;37777;53.066;21.638;2023-04-24T19:20:36;10.02;;;7.38;;
51692;SDS011;37777;53.066;21.638;2023-04-24T19:27:39;9.93;;;7.13;;
51692;SDS011;37777;53.066;21.638;2023-04-24T19:34:41;35.40;;;15.82;;
51692;SDS011;37777;53.066;21.638;2023-04-24T19:41:43;29.23;;;13.23;;
51692;SDS011;37777;53.066;21.638;2023-04-24T19:48:46;18.45;;;10.50;;
51692;SDS011;37777;53.066;21.638;2023-04-24T19:55:48;16.42;;;9.60;;
51692;SDS011;37777;53.066;21.638;2023-04-24T20:02:51;19.30;;;11.05;;
51692;SDS011;37777;53.066;21.638;2023-04-24T20:09:53;14.43;;;8.57;;
51692;SDS011;37777;53.066;21.638;2023-04-24T20:16:56;9.73;;;7.05;;
51692;SDS011;37777;53.066;21.638;2023-04-24T20:23:58;10.70;;;7.10;;
51692;SDS011;37777;53.066;21.638;2023-04-24T20:30:59;12.65;;;6.60;;
51692;SDS011;37777;53.066;21.638;2023-04-24T20:38:01;11.93;;;7.55;;
51692;SDS011;37777;53.066;21.638;2023-04-24T20:45:03;16.08;;;7.85;;
51692;SDS011;37777;53.066;21.638;2023-04-24T20:52:06;13.68;;;7.82;;
51692;SDS011;37777;53.066;21.638;2023-04-24T20:59:08;16.13;;;6.97;;
51692;SDS011;37777;53.066;21.638;2023-04-24T21:06:10;9.20;;;5.93;;
51692;SDS011;37777;53.066;21.638;2023-04-24T21:13:12;9.27;;;5.25;;
51692;SDS011;37777;53.066;21.638;2023-04-24T21:20:14;12.98;;;5.78;;
51692;SDS011;37777;53.066;21.638;2023-04-24T21:27:15;7.88;;;5.47;;
51692;SDS011;37777;53.066;21.638;2023-04-24T21:34:17;7.70;;;5.55;;
51692;SDS011;37777;53.066;21.638;2023-04-24T21:41:19;7.15;;;5.05;;
51692;SDS011;37777;53.066;21.638;2023-04-24T21:48:21;10.82;;;5.78;;
51692;SDS011;37777;53.066;21.638;2023-04-24T21:55:23;9.45;;;5.20;;
51692;SDS011;37777;53.066;21.638;2023-04-24T22:02:25;8.85;;;5.25;;
51692;SDS011;37777;53.066;21.638;2023-04-24T22:09:27;7.88;;;5.10;;
51692;SDS011;37777;53.066;21.638;2023-04-24T22:16:28;9.55;;;5.35;;
51692;SDS011;37777;53.066;21.638;2023-04-24T22:23:32;7.68;;;5.22;;
51692;SDS011;37777;53.066;21.638;2023-04-24T22:30:33;8.85;;;5.30;;
51692;SDS011;37777;53.066;21.638;2023-04-24T22:37:35;9.13;;;5.13;;
51692;SDS011;37777;53.066;21.638;2023-04-24T22:44:37;8.57;;;5.85;;
51692;SDS011;37777;53.066;21.638;2023-04-24T22:51:39;9.18;;;5.43;;
51692;SDS011;37777;53.066;21.638;2023-04-24T22:58:42;9.05;;;5.25;;
51692;SDS011;37777;53.066;21.638;2023-04-24T23:05:44;11.65;;;5.38;;
51692;SDS011;37777;53.066;21.638;2023-04-24T23:12:45;12.00;;;5.47;;
51692;SDS011;37777;53.066;21.638;2023-04-24T23:19:47;8.50;;;5.68;;
51692;SDS011;37777;53.066;21.638;2023-04-24T23:26:49;7.68;;;5.32;;
51692;SDS011;37777;53.066;21.638;2023-04-24T23:33:51;8.70;;;5.85;;
51692;SDS011;37777;53.066;21.638;2023-04-24T23:40:53;10.68;;;5.53;;
51692;SDS011;37777;53.066;21.638;2023-04-24T23:47:55;7.68;;;5.18;;
51692;SDS011;37777;53.066;21.638;2023-04-24T23:54:57;6.70;;;5.20;;
